createdAt,value
2023-09-08T00:00:26.487Z,17.74
2023-09-08T00:01:26.527Z,17.80
2023-09-08T00:02:26.591Z,17.82
2023-09-08T00:03:26.458Z,17.83
2023-09-08T00:04:26.483Z,17.86
2023-09-08T00:05:26.403Z,17.86
2023-09-08T00:06:26.409Z,17.90
2023-09-08T00:07:26.455Z,17.86
2023-09-08T00:08:26.363Z,17.80
2023-09-08T00:09:26.350Z,17.71
2023-09-08T00:10:26.346Z,17.70
2023-09-08T00:11:26.348Z,17.67
2023-09-08T00:12:26.347Z,17.57
2023-09-08T00:13:26.306Z,17.51
2023-09-08T00:14:26.287Z,17.51
2023-09-08T00:15:26.271Z,17.46
2023-09-08T00:16:26.443Z,17.38
2023-09-08T00:17:26.302Z,17.34
2023-09-08T00:18:26.237Z,17.29
2023-09-08T00:19:26.244Z,17.27
2023-09-08T00:20:26.215Z,17.20
2023-09-08T00:21:26.209Z,17.15
2023-09-08T00:22:26.203Z,17.16
2023-09-08T00:23:26.167Z,17.15
2023-09-08T00:24:26.154Z,17.16
2023-09-08T00:25:26.153Z,17.20
2023-09-08T00:26:26.143Z,17.14
2023-09-08T00:27:26.114Z,17.05
2023-09-08T00:28:26.099Z,16.94
2023-09-08T00:29:26.146Z,16.91
2023-09-08T00:30:26.093Z,16.91
2023-09-08T00:31:26.062Z,16.81
2023-09-08T00:32:26.287Z,16.74
2023-09-08T00:33:26.086Z,16.69
2023-09-08T00:34:26.022Z,16.72
2023-09-08T00:35:26.089Z,16.65
2023-09-08T00:36:25.995Z,16.61
2023-09-08T00:37:25.987Z,16.61
2023-09-08T00:38:26.006Z,16.57
2023-09-08T00:39:25.958Z,16.60
2023-09-08T00:40:25.959Z,16.58
2023-09-08T00:41:25.957Z,16.61
2023-09-08T00:42:25.932Z,16.64
2023-09-08T00:43:25.906Z,16.60
2023-09-08T00:44:25.895Z,16.64
2023-09-08T00:45:25.955Z,16.51
2023-09-08T00:46:25.947Z,16.49
2023-09-08T00:47:25.945Z,16.50
2023-09-08T00:48:25.924Z,16.50
2023-09-08T00:49:25.852Z,16.50
2023-09-08T00:50:25.830Z,16.53
2023-09-08T00:51:25.843Z,16.51
2023-09-08T00:52:25.792Z,16.51
2023-09-08T00:53:25.774Z,16.47
2023-09-08T00:54:25.779Z,16.50
2023-09-08T00:55:25.748Z,16.51
2023-09-08T00:56:25.771Z,16.46
2023-09-08T00:57:25.724Z,16.43
2023-09-08T00:58:25.726Z,16.42
2023-09-08T00:59:25.711Z,16.49
2023-09-08T01:00:25.682Z,16.47
2023-09-08T01:01:25.707Z,16.42
2023-09-08T01:02:25.945Z,16.41
2023-09-08T01:03:25.738Z,16.33
2023-09-08T01:04:25.781Z,16.28
2023-09-08T01:05:25.621Z,16.24
2023-09-08T01:06:25.606Z,16.15
2023-09-08T01:07:25.592Z,16.10
2023-09-08T01:08:25.599Z,16.09
2023-09-08T01:09:25.620Z,16.10
2023-09-08T01:10:25.570Z,16.01
2023-09-08T01:11:25.540Z,16.00
2023-09-08T01:12:25.570Z,15.97
2023-09-08T01:13:25.529Z,15.94
2023-09-08T01:14:25.511Z,15.86
2023-09-08T01:15:25.559Z,15.84
2023-09-08T01:16:25.507Z,15.88
2023-09-08T01:17:25.476Z,15.86
2023-09-08T01:18:25.581Z,15.84
2023-09-08T01:19:25.439Z,15.80
2023-09-08T01:20:25.446Z,15.83
2023-09-08T01:21:25.441Z,15.76
2023-09-08T01:22:25.416Z,15.79
2023-09-08T01:23:25.406Z,15.77
2023-09-08T01:24:25.405Z,15.82
2023-09-08T01:25:25.364Z,15.77
2023-09-08T01:26:25.344Z,15.80
2023-09-08T01:27:25.349Z,15.84
2023-09-08T01:28:25.357Z,15.84
2023-09-08T01:29:25.303Z,15.83
2023-09-08T01:30:25.310Z,15.84
2023-09-08T01:31:25.416Z,15.83
2023-09-08T01:32:25.291Z,15.83
2023-09-08T01:33:25.264Z,15.84
2023-09-08T01:34:25.295Z,15.86
2023-09-08T01:35:25.238Z,15.83
2023-09-08T01:36:25.249Z,15.80
2023-09-08T01:37:25.196Z,15.83
2023-09-08T01:38:25.233Z,15.84
2023-09-08T01:39:25.169Z,15.83
2023-09-08T01:40:25.167Z,15.88
2023-09-08T01:41:25.157Z,15.86
2023-09-08T01:42:25.188Z,15.88
2023-09-08T01:43:25.129Z,15.88
2023-09-08T01:44:25.155Z,15.91
2023-09-08T01:45:25.154Z,15.83
2023-09-08T01:46:25.151Z,15.86
2023-09-08T01:47:25.070Z,15.88
2023-09-08T01:48:25.056Z,15.83
2023-09-08T01:49:25.046Z,15.77
2023-09-08T01:50:25.048Z,15.77
2023-09-08T01:51:25.035Z,15.84
2023-09-08T01:52:25.031Z,15.79
2023-09-08T01:53:24.992Z,15.79
2023-09-08T01:54:24.981Z,15.80
2023-09-08T01:55:24.979Z,15.76
2023-09-08T01:56:24.966Z,15.73
2023-09-08T01:57:24.946Z,15.76
2023-09-08T01:58:24.958Z,15.76
2023-09-08T01:59:24.913Z,15.67
2023-09-08T02:00:24.978Z,15.65
2023-09-08T02:01:24.918Z,15.64
2023-09-08T02:02:24.874Z,15.52
2023-09-08T02:03:24.858Z,15.54
2023-09-08T02:04:24.940Z,15.49
2023-09-08T02:05:24.926Z,15.54
2023-09-08T02:06:24.820Z,15.51
2023-09-08T02:07:24.851Z,15.52
2023-09-08T02:08:24.817Z,15.46
2023-09-08T02:09:24.801Z,15.40
2023-09-08T02:10:24.784Z,15.37
2023-09-08T02:11:24.758Z,15.37
2023-09-08T02:12:24.745Z,15.36
2023-09-08T02:13:24.732Z,15.31
2023-09-08T02:14:24.731Z,15.29
2023-09-08T02:15:24.874Z,15.25
2023-09-08T02:16:24.757Z,15.28
2023-09-08T02:17:24.681Z,15.25
2023-09-08T02:18:24.732Z,15.27
2023-09-08T02:19:24.736Z,15.24
2023-09-08T02:20:24.642Z,15.22
2023-09-08T02:21:24.746Z,15.24
2023-09-08T02:22:24.615Z,15.25
2023-09-08T02:23:24.601Z,15.28
2023-09-08T02:24:24.683Z,15.33
2023-09-08T02:25:24.591Z,15.36
2023-09-08T02:26:24.558Z,15.40
2023-09-08T02:27:24.552Z,15.40
2023-09-08T02:28:24.589Z,15.37
2023-09-08T02:29:24.541Z,15.42
2023-09-08T02:30:24.569Z,15.42
2023-09-08T02:31:24.495Z,15.42
2023-09-08T02:32:24.486Z,15.36
2023-09-08T02:33:24.592Z,15.29
2023-09-08T02:34:24.466Z,15.36
2023-09-08T02:35:24.474Z,15.36
2023-09-08T02:36:24.431Z,15.36
2023-09-08T02:37:24.416Z,15.40
2023-09-08T02:38:24.414Z,15.43
2023-09-08T02:39:24.499Z,15.42
2023-09-08T02:40:24.405Z,15.44
2023-09-08T02:41:24.370Z,15.43
2023-09-08T02:42:24.381Z,15.47
2023-09-08T02:43:24.939Z,15.51
2023-09-08T02:44:24.323Z,15.46
2023-09-08T02:45:24.373Z,15.43
2023-09-08T02:46:24.374Z,15.44
2023-09-08T02:47:24.288Z,15.43
2023-09-08T02:48:24.329Z,15.43
2023-09-08T02:49:24.276Z,15.44
2023-09-08T02:50:24.258Z,15.42
2023-09-08T02:51:24.252Z,15.37
2023-09-08T02:52:24.235Z,15.37
2023-09-08T02:53:24.224Z,15.37
2023-09-08T02:54:24.221Z,15.40
2023-09-08T02:55:24.192Z,15.39
2023-09-08T02:56:24.190Z,15.40
2023-09-08T02:57:24.175Z,15.39
2023-09-08T02:58:24.165Z,15.40
2023-09-08T02:59:24.128Z,15.31
2023-09-08T03:00:24.118Z,15.39
2023-09-08T03:01:24.244Z,15.39
2023-09-08T03:02:24.232Z,15.37
2023-09-08T03:03:24.141Z,15.29
2023-09-08T03:04:24.067Z,15.31
2023-09-08T03:05:24.050Z,15.35
2023-09-08T03:06:24.062Z,15.36
2023-09-08T03:07:24.064Z,15.43
2023-09-08T03:08:24.016Z,15.39
2023-09-08T03:09:24.003Z,15.39
2023-09-08T03:10:23.991Z,15.35
2023-09-08T03:11:23.983Z,15.29
2023-09-08T03:12:23.982Z,15.19
2023-09-08T03:13:23.952Z,15.15
2023-09-08T03:14:23.935Z,15.10
2023-09-08T03:15:23.924Z,15.10
2023-09-08T03:16:23.950Z,15.15
2023-09-08T03:17:24.083Z,15.18
2023-09-08T03:18:23.899Z,15.18
2023-09-08T03:19:23.868Z,15.21
2023-09-08T03:20:23.871Z,15.19
2023-09-08T03:21:23.870Z,15.21
2023-09-08T03:22:23.832Z,15.22
2023-09-08T03:23:23.846Z,15.33
2023-09-08T03:24:23.817Z,15.36
2023-09-08T03:25:23.813Z,15.40
2023-09-08T03:26:23.803Z,15.40
2023-09-08T03:27:23.769Z,15.40
2023-09-08T03:28:23.773Z,15.47
2023-09-08T03:29:23.746Z,15.42
2023-09-08T03:30:23.757Z,15.43
2023-09-08T03:31:23.837Z,15.44
2023-09-08T03:32:23.819Z,15.37
2023-09-08T03:33:23.837Z,15.33
2023-09-08T03:34:23.793Z,15.33
2023-09-08T03:35:23.677Z,15.33
2023-09-08T03:36:23.666Z,15.35
2023-09-08T03:37:23.635Z,15.27
2023-09-08T03:38:23.621Z,15.21
2023-09-08T03:39:23.623Z,15.27
2023-09-08T03:40:23.671Z,15.19
2023-09-08T03:41:23.584Z,15.14
2023-09-08T03:42:23.576Z,15.09
2023-09-08T03:43:23.614Z,15.10
2023-09-08T03:44:23.583Z,15.07
2023-09-08T03:45:23.541Z,15.09
2023-09-08T03:46:23.553Z,15.06
2023-09-08T03:47:23.527Z,15.03
2023-09-08T03:48:23.493Z,15.04
2023-09-08T03:49:23.499Z,15.03
2023-09-08T03:50:23.473Z,15.00
2023-09-08T03:51:23.467Z,15.00
2023-09-08T03:52:23.441Z,15.03
2023-09-08T03:53:23.447Z,15.00
2023-09-08T03:54:23.435Z,14.94
2023-09-08T03:55:23.399Z,14.85
2023-09-08T03:56:23.423Z,14.85
2023-09-08T03:57:23.385Z,14.92
2023-09-08T03:58:23.365Z,14.89
2023-09-08T03:59:23.371Z,14.91
2023-09-08T04:00:23.536Z,14.89
2023-09-08T04:01:23.358Z,14.97
2023-09-08T04:02:23.355Z,14.81
2023-09-08T04:03:23.523Z,14.81
2023-09-08T04:04:23.316Z,14.78
2023-09-08T04:05:23.299Z,14.84
2023-09-08T04:06:25.359Z,14.82
2023-09-08T04:07:23.304Z,14.79
2023-09-08T04:08:23.349Z,14.78
2023-09-08T04:09:23.219Z,14.69
2023-09-08T04:10:23.200Z,14.69
2023-09-08T04:11:23.189Z,14.69
2023-09-08T04:12:23.169Z,14.66
2023-09-08T04:13:23.178Z,14.69
2023-09-08T04:14:23.143Z,14.68
2023-09-08T04:15:23.166Z,14.63
2023-09-08T04:16:23.202Z,14.65
2023-09-08T04:17:23.120Z,14.72
2023-09-08T04:18:23.231Z,14.68
2023-09-08T04:19:23.081Z,14.78
2023-09-08T04:20:23.071Z,14.81
2023-09-08T04:21:23.122Z,14.84
2023-09-08T04:22:23.116Z,14.85
2023-09-08T04:23:23.055Z,14.91
2023-09-08T04:24:23.068Z,14.88
2023-09-08T04:25:23.015Z,14.89
2023-09-08T04:26:22.993Z,14.96
2023-09-08T04:27:22.992Z,14.94
2023-09-08T04:28:22.976Z,14.97
2023-09-08T04:29:22.950Z,14.97
2023-09-08T04:30:23.027Z,15.00
2023-09-08T04:31:22.972Z,15.03
2023-09-08T04:32:22.949Z,15.04
2023-09-08T04:33:22.987Z,15.06
2023-09-08T04:34:22.887Z,15.07
2023-09-08T04:35:22.869Z,15.07
2023-09-08T04:36:22.854Z,15.07
2023-09-08T04:37:22.858Z,15.06
2023-09-08T04:38:22.829Z,15.03
2023-09-08T04:39:22.868Z,15.02
2023-09-08T04:40:22.808Z,15.02
2023-09-08T04:41:22.800Z,14.94
2023-09-08T04:42:22.807Z,14.96
2023-09-08T04:43:22.778Z,14.91
2023-09-08T04:44:22.754Z,14.89
2023-09-08T04:45:22.779Z,14.94
2023-09-08T04:46:22.793Z,14.88
2023-09-08T04:47:22.739Z,14.91
2023-09-08T04:48:22.780Z,14.92
2023-09-08T04:49:22.692Z,14.85
2023-09-08T04:50:22.688Z,14.79
2023-09-08T04:51:22.689Z,14.81
2023-09-08T04:52:22.653Z,14.84
2023-09-08T04:53:22.660Z,14.79
2023-09-08T04:54:22.628Z,14.82
2023-09-08T04:55:22.609Z,14.78
2023-09-08T04:56:22.642Z,14.78
2023-09-08T04:57:24.013Z,14.82
2023-09-08T04:58:22.577Z,14.85
2023-09-08T04:59:22.580Z,14.84
2023-09-08T05:00:22.599Z,14.82
2023-09-08T05:01:22.598Z,14.81
2023-09-08T05:02:22.601Z,14.82
2023-09-08T05:03:22.764Z,14.84
2023-09-08T05:04:22.590Z,14.84
2023-09-08T05:05:22.569Z,14.85
2023-09-08T05:06:22.490Z,14.85
2023-09-08T05:07:22.458Z,14.88
2023-09-08T05:08:22.486Z,14.89
2023-09-08T05:09:22.439Z,14.91
2023-09-08T05:10:22.435Z,14.89
2023-09-08T05:11:22.415Z,14.92
2023-09-08T05:12:22.392Z,14.96
2023-09-08T05:13:30.881Z,15.00
2023-09-08T05:14:22.369Z,14.92
2023-09-08T05:15:22.472Z,14.96
2023-09-08T05:16:22.345Z,14.94
2023-09-08T05:17:22.332Z,14.92
2023-09-08T05:18:22.399Z,14.94
2023-09-08T05:19:22.303Z,14.96
2023-09-08T05:20:22.331Z,14.88
2023-09-08T05:21:22.297Z,14.89
2023-09-08T05:22:22.647Z,15.03
2023-09-08T05:23:22.250Z,15.51
2023-09-08T05:24:22.339Z,15.95
2023-09-08T05:25:22.306Z,16.39
2023-09-08T05:26:22.267Z,16.54
2023-09-08T05:27:22.277Z,16.91
2023-09-08T05:28:22.212Z,17.33
2023-09-08T05:29:22.183Z,17.63
2023-09-08T05:30:22.158Z,17.57
2023-09-08T05:31:22.189Z,17.60
2023-09-08T05:32:22.145Z,17.97
2023-09-08T05:33:22.166Z,18.47
2023-09-08T05:34:22.124Z,18.68
2023-09-08T05:35:22.094Z,19.09
2023-09-08T05:36:22.095Z,19.54
2023-09-08T05:37:22.066Z,19.95
2023-09-08T05:38:22.061Z,20.43
2023-09-08T05:39:22.048Z,20.88
2023-09-08T05:40:22.050Z,21.27
2023-09-08T05:41:22.008Z,21.52
2023-09-08T05:42:21.998Z,21.76
2023-09-08T05:43:22.077Z,22.04
2023-09-08T05:44:21.999Z,22.17
2023-09-08T05:45:21.961Z,22.25
2023-09-08T05:46:21.992Z,22.39
2023-09-08T05:47:22.000Z,22.25
2023-09-08T05:48:22.004Z,22.30
2023-09-08T05:49:21.925Z,22.45
2023-09-08T05:50:21.905Z,22.66
2023-09-08T05:51:21.885Z,22.83
2023-09-08T05:52:21.933Z,22.96
2023-09-08T05:53:21.912Z,23.15
2023-09-08T05:54:21.840Z,23.31
2023-09-08T05:55:21.832Z,23.41
2023-09-08T05:56:21.837Z,23.21
2023-09-08T05:57:21.824Z,23.05
2023-09-08T05:58:21.812Z,23.21
2023-09-08T05:59:21.781Z,23.21
2023-09-08T06:00:21.772Z,22.38
2023-09-08T06:01:22.848Z,22.14
2023-09-08T06:02:21.782Z,22.41
2023-09-08T06:03:21.782Z,22.98
2023-09-08T06:04:21.757Z,23.18
2023-09-08T06:05:21.701Z,22.62
2023-09-08T06:06:21.688Z,22.55
2023-09-08T06:07:21.717Z,22.96
2023-09-08T06:08:21.680Z,22.13
2023-09-08T06:09:21.685Z,22.15
2023-09-08T06:10:21.633Z,22.65
2023-09-08T06:11:21.619Z,23.10
2023-09-08T06:12:21.648Z,23.50
2023-09-08T06:13:21.600Z,23.76
2023-09-08T06:14:21.590Z,24.21
2023-09-08T06:15:21.615Z,23.93
2023-09-08T06:16:21.597Z,24.01
2023-09-08T06:17:21.560Z,24.33
2023-09-08T06:18:21.533Z,23.93
2023-09-08T06:19:21.516Z,24.14
2023-09-08T06:20:21.518Z,24.40
2023-09-08T06:21:21.505Z,24.57
2023-09-08T06:22:21.478Z,24.47
2023-09-08T06:23:21.466Z,24.84
2023-09-08T06:24:21.469Z,25.06
2023-09-08T06:25:21.436Z,25.28
2023-09-08T06:26:21.446Z,25.55
2023-09-08T06:27:21.411Z,25.48
2023-09-08T06:28:21.393Z,25.35
2023-09-08T06:29:21.385Z,25.68
2023-09-08T06:30:21.380Z,25.93
2023-09-08T06:31:21.517Z,26.07
2023-09-08T06:32:21.339Z,26.10
2023-09-08T06:33:21.542Z,25.80
2023-09-08T06:34:21.407Z,25.48
2023-09-08T06:35:21.316Z,25.48
2023-09-08T06:36:21.327Z,25.87
2023-09-08T06:37:21.276Z,26.03
2023-09-08T06:38:21.258Z,25.90
2023-09-08T06:39:21.282Z,25.96
2023-09-08T06:40:21.267Z,26.05
2023-09-08T06:41:21.225Z,26.36
2023-09-08T06:42:21.315Z,26.52
2023-09-08T06:43:21.208Z,26.78
2023-09-08T06:44:21.188Z,26.81
2023-09-08T06:45:21.183Z,26.60
2023-09-08T06:46:21.203Z,26.80
2023-09-08T06:47:21.148Z,26.78
2023-09-08T06:48:21.173Z,26.80
2023-09-08T06:49:21.132Z,26.97
2023-09-08T06:50:21.124Z,27.17
2023-09-08T06:51:21.093Z,27.29
2023-09-08T06:52:21.083Z,27.20
2023-09-08T06:53:21.072Z,26.83
2023-09-08T06:54:21.077Z,27.11
2023-09-08T06:55:21.050Z,26.62
2023-09-08T06:56:21.068Z,26.06
2023-09-08T06:57:21.012Z,25.81
2023-09-08T06:58:21.010Z,25.88
2023-09-08T06:59:21.001Z,26.29
2023-09-08T07:00:20.978Z,26.60
2023-09-08T07:01:21.062Z,26.83
2023-09-08T07:02:21.042Z,27.11
2023-09-08T07:03:21.073Z,27.02
2023-09-08T07:04:21.147Z,27.14
2023-09-08T07:05:21.002Z,27.48
2023-09-08T07:06:20.901Z,27.74
2023-09-08T07:07:20.937Z,28.01
2023-09-08T07:08:20.936Z,28.15
2023-09-08T07:09:20.859Z,28.59
2023-09-08T07:10:20.849Z,28.64
2023-09-08T07:11:20.861Z,28.67
2023-09-08T07:12:20.853Z,28.74
2023-09-08T07:13:20.850Z,28.76
2023-09-08T07:14:20.902Z,28.44
2023-09-08T07:15:20.784Z,28.66
2023-09-08T07:16:20.891Z,28.60
2023-09-08T07:17:20.811Z,28.67
2023-09-08T07:18:20.815Z,28.91
2023-09-08T07:19:20.734Z,29.10
2023-09-08T07:20:20.720Z,29.08
2023-09-08T07:21:20.708Z,29.20
2023-09-08T07:22:20.712Z,29.04
2023-09-08T07:23:20.699Z,29.16
2023-09-08T07:24:20.670Z,28.86
2023-09-08T07:25:20.680Z,29.10
2023-09-08T07:26:20.644Z,29.10
2023-09-08T07:27:20.657Z,29.17
2023-09-08T07:28:23.570Z,29.02
2023-09-08T07:29:20.610Z,29.14
2023-09-08T07:30:20.638Z,29.47
2023-09-08T07:31:20.785Z,29.45
2023-09-08T07:32:20.579Z,29.63
2023-09-08T07:33:20.753Z,29.66
2023-09-08T07:34:20.550Z,29.71
2023-09-08T07:35:20.531Z,29.66
2023-09-08T07:36:20.566Z,29.75
2023-09-08T07:37:20.527Z,29.86
2023-09-08T07:38:20.490Z,30.05
2023-09-08T07:39:20.474Z,30.15
2023-09-08T07:40:20.466Z,30.15
2023-09-08T07:41:20.466Z,29.71
2023-09-08T07:42:20.445Z,29.93
2023-09-08T07:43:20.508Z,29.93
2023-09-08T07:44:20.723Z,29.94
2023-09-08T07:45:20.408Z,30.12
2023-09-08T07:46:20.444Z,30.13
2023-09-08T07:47:20.381Z,30.05
2023-09-08T07:48:20.538Z,30.27
2023-09-08T07:49:20.378Z,30.72
2023-09-08T07:50:20.352Z,30.75
2023-09-08T07:51:20.341Z,30.66
2023-09-08T07:52:20.322Z,30.69
2023-09-08T07:53:20.308Z,30.44
2023-09-08T07:54:20.941Z,30.66
2023-09-08T07:55:20.312Z,30.85
2023-09-08T07:56:20.279Z,31.33
2023-09-08T07:57:20.251Z,31.46
2023-09-08T07:58:20.239Z,31.70
2023-09-08T07:59:20.263Z,31.69
2023-09-08T08:00:20.299Z,31.84
2023-09-08T08:01:20.281Z,31.56
2023-09-08T08:02:20.219Z,31.00
2023-09-08T08:03:20.185Z,30.87
2023-09-08T08:04:20.255Z,31.34
2023-09-08T08:05:20.279Z,31.80
2023-09-08T08:06:20.141Z,32.18
2023-09-08T08:07:20.135Z,31.51
2023-09-08T08:08:20.162Z,31.59
2023-09-08T08:09:20.121Z,31.62
2023-09-08T08:10:20.108Z,30.99
2023-09-08T08:11:20.145Z,30.62
2023-09-08T08:12:20.080Z,30.84
2023-09-08T08:13:20.053Z,30.54
2023-09-08T08:14:20.062Z,31.18
2023-09-08T08:15:20.091Z,29.98
2023-09-08T08:16:20.133Z,29.41
2023-09-08T08:17:20.011Z,28.78
2023-09-08T08:18:20.116Z,28.93
2023-09-08T08:19:20.000Z,29.53
2023-09-08T08:20:19.972Z,30.31
2023-09-08T08:21:20.028Z,30.55
2023-09-08T08:22:19.948Z,30.43
2023-09-08T08:23:19.944Z,30.32
2023-09-08T08:24:19.946Z,29.36
2023-09-08T08:25:19.914Z,28.96
2023-09-08T08:26:19.918Z,30.28
2023-09-08T08:27:19.941Z,31.18
2023-09-08T08:28:19.895Z,31.44
2023-09-08T08:29:19.861Z,31.36
2023-09-08T08:30:19.894Z,30.00
2023-09-08T08:31:19.876Z,28.84
2023-09-08T08:32:19.852Z,29.87
2023-09-08T08:33:19.863Z,30.47
2023-09-08T08:34:19.804Z,31.22
2023-09-08T08:35:19.791Z,31.00
2023-09-08T08:36:19.806Z,30.94
2023-09-08T08:37:19.785Z,31.43
2023-09-08T08:38:19.767Z,31.31
2023-09-08T08:39:19.759Z,31.02
2023-09-08T08:40:19.749Z,30.27
2023-09-08T08:41:19.729Z,30.50
2023-09-08T08:42:19.726Z,31.02
2023-09-08T08:43:19.735Z,30.69
2023-09-08T08:44:19.687Z,30.55
2023-09-08T08:45:19.677Z,30.21
2023-09-08T08:46:19.745Z,30.21
2023-09-08T08:47:19.745Z,30.48
2023-09-08T08:48:19.707Z,30.31
2023-09-08T08:49:19.628Z,29.51
2023-09-08T08:50:19.614Z,28.81
2023-09-08T08:51:19.649Z,30.02
2023-09-08T08:52:19.600Z,30.51
2023-09-08T08:53:19.579Z,30.47
2023-09-08T08:54:19.586Z,30.75
2023-09-08T08:55:19.553Z,30.27
2023-09-08T08:56:19.572Z,30.12
2023-09-08T08:57:19.567Z,28.86
2023-09-08T08:58:19.539Z,28.47
2023-09-08T08:59:19.506Z,27.86
2023-09-08T09:00:19.635Z,28.66
2023-09-08T09:01:19.520Z,29.05
2023-09-08T09:02:19.504Z,29.81
2023-09-08T09:03:19.527Z,30.57
2023-09-08T09:04:19.535Z,30.92
2023-09-08T09:05:19.444Z,31.25
2023-09-08T09:06:19.443Z,31.56
2023-09-08T09:07:19.430Z,29.10
2023-09-08T09:08:19.429Z,29.38
2023-09-08T09:09:19.613Z,29.93
2023-09-08T09:10:19.407Z,29.42
2023-09-08T09:11:19.413Z,29.08
2023-09-08T09:12:19.363Z,29.68
2023-09-08T09:13:19.347Z,29.23
2023-09-08T09:14:19.336Z,28.74
2023-09-08T09:15:19.336Z,29.56
2023-09-08T09:16:19.334Z,28.64
2023-09-08T09:17:19.299Z,28.27
2023-09-08T09:18:19.382Z,28.88
2023-09-08T09:19:19.277Z,29.66
2023-09-08T09:20:19.338Z,29.93
2023-09-08T09:21:19.254Z,29.12
2023-09-08T09:22:19.247Z,28.82
2023-09-08T09:23:19.236Z,29.20
2023-09-08T09:24:20.956Z,30.10
2023-09-08T09:25:19.318Z,30.63
2023-09-08T09:26:19.254Z,31.09
2023-09-08T09:27:19.237Z,30.69
2023-09-08T09:28:19.181Z,31.03
2023-09-08T09:29:19.181Z,31.22
2023-09-08T09:30:19.218Z,30.75
2023-09-08T09:31:19.181Z,30.63
2023-09-08T09:32:19.223Z,29.22
2023-09-08T09:33:19.178Z,29.39
2023-09-08T09:34:19.145Z,29.23
2023-09-08T09:35:19.107Z,29.95
2023-09-08T09:36:19.118Z,30.35
2023-09-08T09:37:19.084Z,30.21
2023-09-08T09:38:19.067Z,29.02
2023-09-08T09:39:19.071Z,29.66
2023-09-08T09:40:19.092Z,30.66
2023-09-08T09:41:19.024Z,31.05
2023-09-08T09:42:19.025Z,31.17
2023-09-08T09:43:19.041Z,30.78
2023-09-08T09:44:19.013Z,30.21
2023-09-08T09:45:18.982Z,30.80
2023-09-08T09:46:19.031Z,30.84
2023-09-08T09:47:18.960Z,29.02
2023-09-08T09:48:18.997Z,28.86
2023-09-08T09:49:19.006Z,29.53
2023-09-08T09:50:18.931Z,30.31
2023-09-08T09:51:18.917Z,29.98
2023-09-08T09:52:18.952Z,30.24
2023-09-08T09:53:18.923Z,31.46
2023-09-08T09:54:18.884Z,31.33
2023-09-08T09:55:18.877Z,30.51
2023-09-08T09:56:18.859Z,30.13
2023-09-08T09:57:18.843Z,30.77
2023-09-08T09:58:18.861Z,30.55
2023-09-08T09:59:18.829Z,30.57
2023-09-08T10:00:18.839Z,29.45
2023-09-08T10:01:18.812Z,29.34
2023-09-08T10:02:18.832Z,29.45
2023-09-08T10:03:18.875Z,30.13
2023-09-08T10:04:18.768Z,31.47
2023-09-08T10:05:18.750Z,30.32
2023-09-08T10:06:18.798Z,30.19
2023-09-08T10:07:18.750Z,29.68
2023-09-08T10:08:18.774Z,29.66
2023-09-08T10:09:18.709Z,29.59
2023-09-08T10:10:18.704Z,30.05
2023-09-08T10:11:18.683Z,30.75
2023-09-08T10:12:18.713Z,30.63
2023-09-08T10:13:18.661Z,30.66
2023-09-08T10:14:18.663Z,31.34
2023-09-08T10:15:18.677Z,31.28
2023-09-08T10:16:18.655Z,31.73
2023-09-08T10:17:18.629Z,32.38
2023-09-08T10:18:18.670Z,32.92
2023-09-08T10:19:18.598Z,32.82
2023-09-08T10:20:18.584Z,32.46
2023-09-08T10:21:18.590Z,32.22
2023-09-08T10:22:18.614Z,32.55
2023-09-08T10:23:18.557Z,33.37
2023-09-08T10:24:18.622Z,34.20
2023-09-08T10:25:18.526Z,35.24
2023-09-08T10:26:18.536Z,35.34
2023-09-08T10:27:18.529Z,34.57
2023-09-08T10:28:18.498Z,33.05
2023-09-08T10:29:18.480Z,32.95
2023-09-08T10:30:18.477Z,31.33
2023-09-08T10:31:18.570Z,31.47
2023-09-08T10:32:18.491Z,31.65
2023-09-08T10:33:18.531Z,32.63
2023-09-08T10:34:18.432Z,33.42
2023-09-08T10:35:18.453Z,32.11
2023-09-08T10:36:18.482Z,32.31
2023-09-08T10:37:18.431Z,33.36
2023-09-08T10:38:18.385Z,34.08
2023-09-08T10:39:18.377Z,33.30
2023-09-08T10:40:18.430Z,34.39
2023-09-08T10:41:18.627Z,35.56
2023-09-08T10:42:18.346Z,36.17
2023-09-08T10:43:18.332Z,36.70
2023-09-08T10:44:18.471Z,37.14
2023-09-08T10:45:18.326Z,37.67
2023-09-08T10:46:18.323Z,38.01
2023-09-08T10:47:18.283Z,38.24
2023-09-08T10:48:18.292Z,38.39
2023-09-08T10:49:18.276Z,38.31
2023-09-08T10:50:18.270Z,34.74
2023-09-08T10:51:18.249Z,33.95
2023-09-08T10:52:18.260Z,34.02
2023-09-08T10:53:18.266Z,32.80
2023-09-08T10:54:18.214Z,34.10
2023-09-08T10:55:18.217Z,35.33
2023-09-08T10:56:18.572Z,36.31
2023-09-08T10:57:18.208Z,36.98
2023-09-08T10:58:18.165Z,37.70
2023-09-08T10:59:18.228Z,38.19
2023-09-08T11:00:18.166Z,36.59
2023-09-08T11:01:18.145Z,35.33
2023-09-08T11:02:18.125Z,35.31
2023-09-08T11:03:18.184Z,34.66
2023-09-08T11:04:18.258Z,35.56
2023-09-08T11:05:18.092Z,36.55
2023-09-08T11:06:18.128Z,37.32
2023-09-08T11:07:18.092Z,38.01
2023-09-08T11:08:18.094Z,38.09
2023-09-08T11:09:18.075Z,37.51
2023-09-08T11:10:18.033Z,36.98
2023-09-08T11:11:18.086Z,35.79
2023-09-08T11:12:18.040Z,34.92
2023-09-08T11:13:18.009Z,34.39
2023-09-08T11:14:18.106Z,34.25
2023-09-08T11:15:17.985Z,33.46
2023-09-08T11:16:18.034Z,33.14
2023-09-08T11:17:17.974Z,32.80
2023-09-08T11:18:18.045Z,33.32
2023-09-08T11:19:17.954Z,33.87
2023-09-08T11:20:17.959Z,34.43
2023-09-08T11:21:17.918Z,33.65
2023-09-08T11:22:17.911Z,32.55
2023-09-08T11:23:17.909Z,30.68
2023-09-08T11:24:17.882Z,30.18
2023-09-08T11:25:17.897Z,30.81
2023-09-08T11:26:17.871Z,31.40
2023-09-08T11:27:17.855Z,32.07
2023-09-08T11:28:17.943Z,32.21
2023-09-08T11:29:17.839Z,32.31
2023-09-08T11:30:17.820Z,32.38
2023-09-08T11:31:17.853Z,31.70
2023-09-08T11:32:17.828Z,32.33
2023-09-08T11:33:17.808Z,33.02
2023-09-08T11:34:17.799Z,32.71
2023-09-08T11:35:17.785Z,31.87
2023-09-08T11:36:18.462Z,31.62
2023-09-08T11:37:17.760Z,32.78
2023-09-08T11:38:17.731Z,31.54
2023-09-08T11:39:17.739Z,31.81
2023-09-08T11:40:17.744Z,31.66
2023-09-08T11:41:17.703Z,32.08
2023-09-08T11:42:17.712Z,31.43
2023-09-08T11:43:17.676Z,31.92
2023-09-08T11:44:17.831Z,32.83
2023-09-08T11:45:17.653Z,33.79
2023-09-08T11:46:17.709Z,33.12
2023-09-08T11:47:17.653Z,31.80
2023-09-08T11:48:17.620Z,31.33
2023-09-08T11:49:17.658Z,31.24
2023-09-08T11:50:17.593Z,30.83
2023-09-08T11:51:17.594Z,31.64
2023-09-08T11:52:17.597Z,32.58
2023-09-08T11:53:17.571Z,32.59
2023-09-08T11:54:17.554Z,32.77
2023-09-08T11:55:17.749Z,32.86
2023-09-08T11:56:17.558Z,32.77
2023-09-08T11:57:17.549Z,32.75
2023-09-08T11:58:17.521Z,33.34
2023-09-08T11:59:17.506Z,33.43
2023-09-08T12:00:17.526Z,31.70
2023-09-08T12:01:17.517Z,31.74
2023-09-08T12:02:17.475Z,32.07
2023-09-08T12:03:17.728Z,32.12
2023-09-08T12:04:17.512Z,32.37
2023-09-08T12:05:17.473Z,32.37
2023-09-08T12:06:17.433Z,33.68
2023-09-08T12:07:17.406Z,35.05
2023-09-08T12:08:17.393Z,34.27
2023-09-08T12:09:17.378Z,34.81
2023-09-08T12:10:17.371Z,35.74
2023-09-08T12:11:17.372Z,36.30
2023-09-08T12:12:17.342Z,36.04
2023-09-08T12:13:17.336Z,35.23
2023-09-08T12:14:17.334Z,35.36
2023-09-08T12:15:17.399Z,33.83
2023-09-08T12:16:17.371Z,34.16
2023-09-08T12:17:17.338Z,34.23
2023-09-08T12:18:17.334Z,33.67
2023-09-08T12:19:17.293Z,33.34
2023-09-08T12:20:17.280Z,33.64
2023-09-08T12:21:17.259Z,34.11
2023-09-08T12:22:17.273Z,34.78
2023-09-08T12:23:17.226Z,35.70
2023-09-08T12:24:17.207Z,36.83
2023-09-08T12:25:17.234Z,37.96
2023-09-08T12:26:17.193Z,38.55
2023-09-08T12:27:17.256Z,38.95
2023-09-08T12:28:17.197Z,37.90
2023-09-08T12:29:17.153Z,36.67
2023-09-08T12:30:17.162Z,35.98
2023-09-08T12:31:17.233Z,36.55
2023-09-08T12:32:17.174Z,37.32
2023-09-08T12:33:17.179Z,38.12
2023-09-08T12:34:17.121Z,36.57
2023-09-08T12:35:17.104Z,37.20
2023-09-08T12:36:17.078Z,38.08
2023-09-08T12:37:17.111Z,36.72
2023-09-08T12:38:17.066Z,36.65
2023-09-08T12:39:17.043Z,36.93
2023-09-08T12:40:17.062Z,37.15
2023-09-08T12:41:17.021Z,37.03
2023-09-08T12:42:17.008Z,36.01
2023-09-08T12:43:22.370Z,35.83
2023-09-08T12:44:17.001Z,36.54
2023-09-08T12:45:16.990Z,37.17
2023-09-08T12:46:16.986Z,37.99
2023-09-08T12:47:16.957Z,37.97
2023-09-08T12:48:16.958Z,37.53
2023-09-08T12:49:16.946Z,36.81
2023-09-08T12:50:16.913Z,37.47
2023-09-08T12:51:16.909Z,37.49
2023-09-08T12:52:16.890Z,36.33